createdAt,value
2023-03-30T00:00:57.814Z,19.97
2023-03-30T00:03:27.715Z,19.98
2023-03-30T00:05:57.004Z,19.98
2023-03-30T00:08:28.530Z,19.99
2023-03-30T00:10:56.618Z,20.01
2023-03-30T00:13:24.369Z,19.99
2023-03-30T00:15:52.216Z,19.98
2023-03-30T00:18:20.151Z,19.99
2023-03-30T00:20:47.973Z,20.01
2023-03-30T00:23:15.724Z,20.01
2023-03-30T00:25:43.656Z,20.00
2023-03-30T00:28:11.422Z,20.01
2023-03-30T00:30:39.441Z,20.03
2023-03-30T00:33:07.279Z,20.02
2023-03-30T00:35:35.492Z,20.00
2023-03-30T00:38:03.456Z,19.99
2023-03-30T00:40:31.363Z,19.99
2023-03-30T00:42:59.449Z,19.99
2023-03-30T00:45:27.780Z,19.98
2023-03-30T00:47:57.807Z,19.97
2023-03-30T00:50:25.645Z,19.97
2023-03-30T00:52:53.450Z,19.97
2023-03-30T00:55:21.527Z,19.97
2023-03-30T00:57:49.465Z,19.96
2023-03-30T01:00:17.347Z,19.93
2023-03-30T01:02:46.198Z,19.93
2023-03-30T01:05:14.184Z,19.93
2023-03-30T01:07:41.992Z,19.92
2023-03-30T01:10:09.762Z,19.92
2023-03-30T01:12:37.577Z,19.95
2023-03-30T01:15:05.614Z,19.96
2023-03-30T01:17:33.438Z,19.96
2023-03-30T01:20:03.140Z,19.95
2023-03-30T01:22:34.775Z,19.93
2023-03-30T01:25:03.066Z,19.93
2023-03-30T01:27:30.848Z,19.94
2023-03-30T01:29:58.648Z,19.96
2023-03-30T01:32:26.460Z,19.95
2023-03-30T01:34:54.383Z,19.92
2023-03-30T01:37:22.303Z,19.89
2023-03-30T01:39:50.087Z,19.87
2023-03-30T01:42:18.161Z,19.84
2023-03-30T01:44:46.014Z,19.87
2023-03-30T01:47:14.648Z,19.87
2023-03-30T01:49:43.238Z,19.87
2023-03-30T01:52:11.052Z,19.92
2023-03-30T01:54:41.650Z,19.91
2023-03-30T01:57:09.522Z,19.88
2023-03-30T01:59:37.344Z,19.88
2023-03-30T02:02:07.178Z,19.87
2023-03-30T02:04:36.217Z,19.87
2023-03-30T02:07:04.145Z,19.87
2023-03-30T02:09:31.917Z,19.87
2023-03-30T02:11:59.813Z,19.85
2023-03-30T02:14:27.593Z,19.85
2023-03-30T02:16:55.400Z,19.85
2023-03-30T02:19:23.245Z,19.85
2023-03-30T02:21:51.231Z,19.86
2023-03-30T02:24:19.821Z,19.87
2023-03-30T02:26:48.212Z,19.86
2023-03-30T02:29:18.931Z,19.86
2023-03-30T02:31:49.685Z,19.83
2023-03-30T02:34:19.610Z,19.79
2023-03-30T02:36:47.554Z,19.83
2023-03-30T02:39:15.973Z,19.86
2023-03-30T02:41:43.784Z,19.86
2023-03-30T02:44:11.637Z,19.87
2023-03-30T02:46:39.468Z,19.85
2023-03-30T02:49:07.624Z,19.87
2023-03-30T02:51:35.427Z,19.85
2023-03-30T02:54:03.424Z,19.80
2023-03-30T02:56:31.168Z,19.80
2023-03-30T02:58:59.003Z,19.81
2023-03-30T03:01:26.917Z,19.82
2023-03-30T03:03:58.272Z,19.81
2023-03-30T03:06:26.054Z,19.80
2023-03-30T03:08:53.897Z,19.80
2023-03-30T03:11:21.773Z,19.82
2023-03-30T03:13:49.872Z,19.80
2023-03-30T03:16:20.651Z,19.78
2023-03-30T03:18:49.703Z,19.80
2023-03-30T03:21:17.533Z,19.81
2023-03-30T03:23:48.373Z,19.80
2023-03-30T03:26:16.288Z,19.77
2023-03-30T03:28:44.983Z,19.79
2023-03-30T03:31:13.491Z,19.78
2023-03-30T03:33:41.337Z,19.80
2023-03-30T03:36:09.163Z,19.82
2023-03-30T03:38:36.988Z,19.81
2023-03-30T03:41:05.095Z,19.80
2023-03-30T03:43:33.420Z,19.78
2023-03-30T03:46:01.319Z,19.79
2023-03-30T03:48:29.204Z,19.77
2023-03-30T03:50:57.118Z,19.80
2023-03-30T03:53:24.933Z,19.80
2023-03-30T03:55:52.789Z,19.79
2023-03-30T03:58:20.753Z,19.79
2023-03-30T04:00:48.916Z,19.79
2023-03-30T04:03:17.034Z,19.79
2023-03-30T04:05:44.876Z,19.80
2023-03-30T04:08:12.664Z,19.82
2023-03-30T04:10:40.819Z,19.79
2023-03-30T04:13:08.622Z,19.81
2023-03-30T04:15:36.485Z,19.81
2023-03-30T04:18:05.290Z,19.83
2023-03-30T04:20:33.279Z,19.82
2023-03-30T04:23:02.204Z,19.82
2023-03-30T04:25:30.104Z,19.87
2023-03-30T04:27:57.903Z,19.86
2023-03-30T04:30:25.709Z,19.88
2023-03-30T04:33:02.830Z,19.93
2023-03-30T04:35:31.055Z,19.91
2023-03-30T04:38:00.158Z,19.92
2023-03-30T04:40:30.412Z,19.92
2023-03-30T04:43:02.318Z,19.92
2023-03-30T04:45:30.373Z,19.88
2023-03-30T04:47:58.202Z,19.89
2023-03-30T04:50:26.147Z,19.88
2023-03-30T04:52:53.942Z,19.88
2023-03-30T04:55:21.741Z,19.86
2023-03-30T04:57:49.536Z,19.88
2023-03-30T05:00:17.614Z,19.89
2023-03-30T05:02:45.707Z,19.89
2023-03-30T05:05:13.593Z,19.88
2023-03-30T05:07:41.411Z,19.85
2023-03-30T05:10:09.193Z,19.89
2023-03-30T05:12:36.984Z,19.87
2023-03-30T05:15:04.762Z,19.88
2023-03-30T05:17:32.587Z,19.89
2023-03-30T05:20:00.589Z,19.90
2023-03-30T05:22:28.364Z,19.88
2023-03-30T05:24:56.106Z,19.91
2023-03-30T05:27:23.929Z,19.88
2023-03-30T05:29:51.736Z,19.89
2023-03-30T05:32:19.503Z,19.93
2023-03-30T05:34:48.057Z,19.92
2023-03-30T05:37:15.956Z,19.92
2023-03-30T05:39:43.728Z,19.90
2023-03-30T05:42:11.578Z,19.89
2023-03-30T05:44:39.475Z,19.89
2023-03-30T05:47:07.326Z,19.87
2023-03-30T05:49:35.210Z,19.89
2023-03-30T05:52:05.777Z,19.89
2023-03-30T05:54:33.539Z,19.89
2023-03-30T05:57:01.450Z,19.89
2023-03-30T05:59:29.265Z,19.91
2023-03-30T06:01:57.317Z,19.91
2023-03-30T06:04:26.806Z,19.91
2023-03-30T06:06:54.669Z,19.92
2023-03-30T06:09:24.116Z,19.89
2023-03-30T06:11:51.953Z,19.89
2023-03-30T06:14:19.692Z,19.93
2023-03-30T06:16:47.557Z,19.91
2023-03-30T06:19:15.373Z,19.92
2023-03-30T06:21:43.375Z,19.97
2023-03-30T06:24:11.228Z,19.98
2023-03-30T06:26:39.022Z,19.98
2023-03-30T06:29:06.888Z,19.99
2023-03-30T06:31:35.178Z,19.99
2023-03-30T06:34:03.356Z,20.02
2023-03-30T06:36:44.666Z,20.00
2023-03-30T06:39:13.565Z,20.03
2023-03-30T06:41:41.775Z,20.03
2023-03-30T06:44:10.433Z,20.02
2023-03-30T06:46:38.291Z,20.00
2023-03-30T06:49:06.086Z,20.02
2023-03-30T06:51:35.419Z,20.02
2023-03-30T06:54:03.191Z,20.03
2023-03-30T06:56:31.437Z,20.08
2023-03-30T06:58:59.221Z,20.09
2023-03-30T07:01:26.988Z,20.11
2023-03-30T07:03:54.828Z,20.15
2023-03-30T07:06:22.811Z,20.20
2023-03-30T07:08:50.640Z,20.22
2023-03-30T07:11:18.566Z,20.25
2023-03-30T07:13:46.363Z,20.27
2023-03-30T07:16:14.261Z,20.25
2023-03-30T07:18:42.143Z,20.27
2023-03-30T07:21:09.907Z,20.28
2023-03-30T07:23:37.684Z,20.31
2023-03-30T07:26:05.510Z,20.35
2023-03-30T07:28:33.358Z,20.37
2023-03-30T07:31:01.680Z,20.40
2023-03-30T07:33:29.949Z,20.42
2023-03-30T07:35:57.977Z,20.43
2023-03-30T07:38:25.938Z,20.46
2023-03-30T07:40:53.770Z,20.47
2023-03-30T07:43:21.846Z,20.47
2023-03-30T07:45:49.654Z,20.45
2023-03-30T07:48:17.524Z,20.46
2023-03-30T07:50:45.394Z,20.47
2023-03-30T07:53:13.764Z,20.51
2023-03-30T07:55:41.591Z,20.53
2023-03-30T07:58:09.420Z,20.58
2023-03-30T08:00:37.385Z,20.61
2023-03-30T08:03:05.397Z,20.62
2023-03-30T08:05:33.220Z,20.62
2023-03-30T08:08:01.184Z,20.63
2023-03-30T08:10:29.091Z,20.63
2023-03-30T08:12:56.906Z,20.63
2023-03-30T08:15:24.791Z,20.63
2023-03-30T08:17:52.614Z,20.62
2023-03-30T08:20:20.560Z,20.61
2023-03-30T08:22:48.309Z,20.61
2023-03-30T08:25:16.109Z,20.61
2023-03-30T08:27:44.021Z,20.60
2023-03-30T08:30:13.301Z,20.60
2023-03-30T08:32:41.210Z,20.58
2023-03-30T08:35:09.031Z,20.59
2023-03-30T08:37:36.869Z,20.57
2023-03-30T08:40:08.027Z,20.57
2023-03-30T08:42:35.849Z,20.56
2023-03-30T08:45:05.641Z,20.56
2023-03-30T08:47:33.634Z,20.55
2023-03-30T08:50:01.854Z,20.57
2023-03-30T08:52:29.678Z,20.56
2023-03-30T08:54:58.062Z,20.54
2023-03-30T08:57:26.411Z,20.53
2023-03-30T08:59:54.237Z,20.52
2023-03-30T09:02:22.056Z,20.53
2023-03-30T09:04:54.965Z,20.52
2023-03-30T09:07:23.545Z,20.54
2023-03-30T09:09:52.113Z,20.53
2023-03-30T09:12:20.016Z,20.54
2023-03-30T09:14:48.227Z,20.55
2023-03-30T09:17:16.898Z,20.56
2023-03-30T09:19:44.745Z,20.57
2023-03-30T09:22:12.557Z,20.57
2023-03-30T09:24:40.974Z,20.56
2023-03-30T09:27:09.289Z,20.55
2023-03-30T09:29:39.238Z,20.57
2023-03-30T09:32:07.887Z,20.59
2023-03-30T09:34:35.741Z,20.60
2023-03-30T09:37:03.529Z,20.61
2023-03-30T09:39:33.505Z,20.61
2023-03-30T09:42:01.996Z,20.60
2023-03-30T09:44:29.760Z,20.61
2023-03-30T09:46:57.585Z,20.62
2023-03-30T09:49:25.420Z,20.63
2023-03-30T09:51:53.382Z,20.62
2023-03-30T09:54:21.134Z,20.64
2023-03-30T09:56:51.540Z,20.65
2023-03-30T09:59:19.402Z,20.65
2023-03-30T10:01:47.244Z,20.66
2023-03-30T10:04:16.502Z,20.66
2023-03-30T10:06:44.496Z,20.67
2023-03-30T10:09:12.413Z,20.68
2023-03-30T10:11:40.210Z,20.72
2023-03-30T10:14:08.086Z,20.75
2023-03-30T10:16:35.915Z,20.80
2023-03-30T10:19:03.744Z,20.84
2023-03-30T10:21:31.552Z,20.86
2023-03-30T10:23:59.600Z,20.87
2023-03-30T10:26:28.386Z,20.89
2023-03-30T10:28:56.920Z,20.90
2023-03-30T10:31:26.397Z,20.93
2023-03-30T10:33:55.614Z,20.94
2023-03-30T10:36:23.407Z,20.93
2023-03-30T10:38:51.516Z,20.95
2023-03-30T10:41:20.576Z,20.97
2023-03-30T10:43:48.785Z,20.96
2023-03-30T10:46:20.478Z,20.96
2023-03-30T10:48:48.654Z,20.97
2023-03-30T10:51:17.986Z,20.94
2023-03-30T10:53:45.802Z,20.92
2023-03-30T10:56:13.601Z,20.93
2023-03-30T10:58:43.311Z,20.89
2023-03-30T11:01:11.145Z,20.87
2023-03-30T11:03:39.094Z,20.88
2023-03-30T11:06:07.144Z,20.89
2023-03-30T11:08:35.809Z,20.91
2023-03-30T11:11:03.713Z,20.92
2023-03-30T11:13:31.616Z,20.92
2023-03-30T11:15:59.412Z,20.90
2023-03-30T11:18:27.252Z,20.93
2023-03-30T11:20:55.073Z,20.92
2023-03-30T11:23:22.885Z,20.96
2023-03-30T11:25:50.794Z,20.96
2023-03-30T11:28:18.636Z,20.95
2023-03-30T11:30:46.396Z,20.94
2023-03-30T11:33:14.241Z,20.91
2023-03-30T11:35:42.098Z,20.91
2023-03-30T11:38:09.996Z,20.92
2023-03-30T11:40:37.746Z,20.96
2023-03-30T11:43:05.511Z,20.94
2023-03-30T11:45:33.275Z,20.92
2023-03-30T11:48:01.631Z,20.94
2023-03-30T11:50:29.955Z,20.94
2023-03-30T11:52:58.112Z,20.96
2023-03-30T11:55:25.900Z,20.89
2023-03-30T11:57:53.747Z,20.88
2023-03-30T12:00:21.506Z,20.91
2023-03-30T12:02:49.458Z,20.92
2023-03-30T12:05:17.320Z,20.91
2023-03-30T12:07:45.113Z,20.91
2023-03-30T12:10:12.915Z,20.94
2023-03-30T12:12:40.719Z,20.95
2023-03-30T12:15:08.693Z,20.93
2023-03-30T12:17:36.565Z,20.97
2023-03-30T12:20:04.437Z,20.99
2023-03-30T12:22:32.265Z,20.99
2023-03-30T12:25:00.163Z,20.99
2023-03-30T12:27:29.095Z,20.94
2023-03-30T12:30:03.064Z,20.91
2023-03-30T12:32:31.501Z,20.95
2023-03-30T12:34:59.422Z,20.96
2023-03-30T12:37:28.527Z,21.00
2023-03-30T12:39:57.703Z,20.99
2023-03-30T12:42:34.748Z,21.01
2023-03-30T12:45:03.051Z,21.02
2023-03-30T12:47:32.943Z,21.00
2023-03-30T12:50:00.912Z,20.97
2023-03-30T12:52:28.806Z,20.97
2023-03-30T12:54:56.574Z,20.98
2023-03-30T12:57:24.795Z,20.99
2023-03-30T12:59:52.920Z,20.99
2023-03-30T13:02:20.851Z,20.96
2023-03-30T13:04:49.074Z,20.93
2023-03-30T13:07:17.049Z,20.96
2023-03-30T13:09:44.913Z,20.97
2023-03-30T13:12:12.701Z,20.97
2023-03-30T13:14:40.614Z,20.98
2023-03-30T13:17:08.549Z,21.02
2023-03-30T13:19:37.312Z,21.06
2023-03-30T13:22:05.131Z,20.98
2023-03-30T13:24:32.976Z,21.07
2023-03-30T13:27:00.903Z,21.07
2023-03-30T13:29:30.910Z,21.10
2023-03-30T13:31:58.879Z,21.11
2023-03-30T13:34:26.642Z,21.06
2023-03-30T13:36:54.439Z,21.06
2023-03-30T13:39:22.792Z,21.02
2023-03-30T13:41:50.818Z,21.01
2023-03-30T13:44:18.645Z,21.00
2023-03-30T13:46:46.508Z,20.84
2023-03-30T13:49:14.336Z,20.76
2023-03-30T13:51:42.561Z,20.88
2023-03-30T13:54:10.368Z,21.02
2023-03-30T13:56:38.236Z,21.20
2023-03-30T13:59:06.553Z,21.29
2023-03-30T14:01:34.346Z,21.35
2023-03-30T14:04:03.848Z,21.42
2023-03-30T14:06:31.905Z,21.52
2023-03-30T14:08:59.690Z,21.54
2023-03-30T14:11:27.662Z,21.56
2023-03-30T14:13:55.470Z,21.62
2023-03-30T14:16:23.336Z,21.67
2023-03-30T14:18:51.114Z,21.68
2023-03-30T14:21:18.947Z,21.68
2023-03-30T14:23:46.724Z,21.65
2023-03-30T14:26:14.494Z,21.61
2023-03-30T14:28:42.702Z,21.56
2023-03-30T14:31:10.911Z,21.49
2023-03-30T14:33:39.803Z,21.43
2023-03-30T14:36:08.927Z,21.36
2023-03-30T14:38:38.489Z,21.29
2023-03-30T14:41:06.976Z,21.21
2023-03-30T14:43:35.073Z,21.15
2023-03-30T14:46:03.068Z,21.08
2023-03-30T14:48:31.125Z,21.02
2023-03-30T14:50:58.942Z,20.97
2023-03-30T14:53:26.821Z,20.93
2023-03-30T14:55:57.114Z,20.90
2023-03-30T14:58:24.866Z,20.86
2023-03-30T15:00:52.846Z,20.80
2023-03-30T15:03:32.951Z,20.78
2023-03-30T15:06:02.207Z,20.83
2023-03-30T15:08:30.022Z,20.93
2023-03-30T15:10:57.961Z,21.05
2023-03-30T15:13:25.705Z,21.10
2023-03-30T15:15:54.472Z,21.18
2023-03-30T15:18:22.268Z,21.24
2023-03-30T15:20:50.130Z,21.28
2023-03-30T15:23:17.925Z,21.30
2023-03-30T15:25:45.766Z,21.31
2023-03-30T15:28:13.538Z,21.34
2023-03-30T15:30:41.305Z,21.35
2023-03-30T15:33:09.155Z,21.33
2023-03-30T15:35:37.081Z,21.32
2023-03-30T15:38:04.934Z,21.30
2023-03-30T15:40:32.740Z,21.21
2023-03-30T15:43:00.513Z,21.11
2023-03-30T15:45:28.281Z,21.09
2023-03-30T15:47:56.181Z,21.05
2023-03-30T15:50:24.029Z,21.04
2023-03-30T15:52:51.827Z,21.03
2023-03-30T15:55:19.638Z,20.97
2023-03-30T15:57:47.672Z,20.94
2023-03-30T16:00:15.458Z,20.90
2023-03-30T16:02:43.314Z,20.85
2023-03-30T16:05:11.519Z,20.84
2023-03-30T16:07:41.989Z,20.82
2023-03-30T16:10:10.002Z,20.81
2023-03-30T16:12:38.309Z,20.78
2023-03-30T16:15:07.182Z,20.75
2023-03-30T16:17:36.214Z,20.73
2023-03-30T16:20:05.985Z,20.73
2023-03-30T16:22:34.150Z,20.72
2023-03-30T16:25:01.999Z,20.70
2023-03-30T16:27:29.965Z,20.70
2023-03-30T16:29:57.757Z,20.68
2023-03-30T16:32:29.879Z,20.65
2023-03-30T16:35:02.598Z,20.64
2023-03-30T16:37:30.393Z,20.61
2023-03-30T16:39:58.298Z,20.58
2023-03-30T16:42:27.479Z,20.58
2023-03-30T16:44:55.345Z,20.84
2023-03-30T16:47:23.186Z,21.01
2023-03-30T16:49:51.877Z,21.05
2023-03-30T16:52:19.929Z,21.03
2023-03-30T16:54:48.383Z,21.00
2023-03-30T16:57:16.518Z,20.96
2023-03-30T16:59:44.390Z,20.94
2023-03-30T17:02:15.899Z,20.93
2023-03-30T17:04:45.789Z,20.92
2023-03-30T17:07:13.721Z,20.65
2023-03-30T17:09:41.625Z,20.76
2023-03-30T17:12:09.541Z,21.00
2023-03-30T17:14:37.660Z,21.17
2023-03-30T17:17:07.298Z,21.34
2023-03-30T17:19:35.393Z,21.48
2023-03-30T17:22:03.219Z,21.59
2023-03-30T17:24:31.096Z,21.68
2023-03-30T17:27:00.143Z,21.76
2023-03-30T17:29:27.942Z,21.79
2023-03-30T17:31:56.215Z,21.84
2023-03-30T17:34:24.014Z,21.85
2023-03-30T17:36:53.612Z,21.85
2023-03-30T17:39:21.733Z,21.85
2023-03-30T17:41:49.767Z,21.84
2023-03-30T17:44:17.547Z,21.79
2023-03-30T17:46:46.511Z,21.71
2023-03-30T17:49:14.376Z,21.67
2023-03-30T17:51:42.156Z,21.59
2023-03-30T17:54:10.028Z,21.51
2023-03-30T17:56:37.771Z,21.47
2023-03-30T17:59:05.893Z,21.44
2023-03-30T18:01:36.095Z,21.39
2023-03-30T18:04:04.347Z,21.31
2023-03-30T18:06:32.659Z,21.25
2023-03-30T18:09:00.694Z,21.19
2023-03-30T18:11:28.469Z,21.16
2023-03-30T18:13:56.422Z,21.13
2023-03-30T18:16:24.859Z,21.10
2023-03-30T18:18:52.769Z,21.08
2023-03-30T18:21:21.022Z,21.03
2023-03-30T18:23:48.786Z,20.98
2023-03-30T18:26:16.905Z,20.95
2023-03-30T18:28:46.532Z,20.92
2023-03-30T18:31:16.891Z,20.87
2023-03-30T18:33:45.201Z,20.82
2023-03-30T18:36:13.487Z,20.77
2023-03-30T18:38:41.523Z,20.76
2023-03-30T18:41:09.421Z,20.69
2023-03-30T18:43:37.194Z,20.65
2023-03-30T18:46:05.877Z,20.64
2023-03-30T18:48:33.809Z,20.61
2023-03-30T18:51:01.763Z,20.62
2023-03-30T18:53:29.562Z,20.59
2023-03-30T18:56:00.384Z,20.58
2023-03-30T18:58:28.652Z,20.71
2023-03-30T19:00:56.563Z,21.00
2023-03-30T19:03:24.623Z,21.06
2023-03-30T19:05:52.565Z,21.03
2023-03-30T19:08:20.654Z,20.96
2023-03-30T19:10:48.494Z,20.94
2023-03-30T19:13:16.639Z,20.89
2023-03-30T19:15:44.410Z,20.89
2023-03-30T19:18:12.270Z,20.87
2023-03-30T19:20:41.445Z,20.83
2023-03-30T19:23:09.282Z,20.82
2023-03-30T19:25:37.400Z,20.83
2023-03-30T19:28:05.799Z,20.80
2023-03-30T19:30:34.920Z,20.76
2023-03-30T19:33:04.716Z,20.72
2023-03-30T19:35:32.647Z,20.73
2023-03-30T19:38:00.680Z,20.74
2023-03-30T19:40:28.535Z,20.74
2023-03-30T19:42:56.312Z,20.72
2023-03-30T19:45:24.445Z,20.69
2023-03-30T19:47:52.274Z,20.67
2023-03-30T19:50:20.184Z,20.68
2023-03-30T19:52:50.189Z,20.67
2023-03-30T19:55:18.258Z,20.63
2023-03-30T19:57:46.206Z,20.63
2023-03-30T20:00:15.433Z,20.62
2023-03-30T20:02:43.867Z,20.62
2023-03-30T20:05:13.013Z,20.62
2023-03-30T20:07:41.003Z,20.59
2023-03-30T20:10:08.899Z,20.59
2023-03-30T20:12:36.831Z,20.56
2023-03-30T20:15:06.084Z,20.56
2023-03-30T20:17:34.251Z,20.54
2023-03-30T20:20:08.532Z,20.55
2023-03-30T20:22:36.531Z,20.54
2023-03-30T20:25:04.937Z,20.51
2023-03-30T20:27:33.938Z,20.50
2023-03-30T20:30:03.046Z,20.47
2023-03-30T20:32:31.092Z,20.47
2023-03-30T20:34:58.938Z,20.45
2023-03-30T20:37:26.731Z,20.45
2023-03-30T20:40:03.588Z,20.44
2023-03-30T20:42:34.266Z,20.44
2023-03-30T20:45:02.166Z,20.45
2023-03-30T20:47:31.454Z,20.42
2023-03-30T20:49:59.472Z,20.43
2023-03-30T20:52:27.424Z,20.46
2023-03-30T20:54:56.351Z,20.44
2023-03-30T20:57:24.433Z,20.42
2023-03-30T20:59:53.468Z,20.42
2023-03-30T21:02:21.554Z,20.40
2023-03-30T21:04:50.730Z,20.40
2023-03-30T21:07:18.643Z,20.40
2023-03-30T21:09:47.530Z,20.40
2023-03-30T21:12:15.505Z,20.41
2023-03-30T21:14:45.875Z,20.39
2023-03-30T21:17:13.779Z,20.37
2023-03-30T21:19:41.669Z,20.37
2023-03-30T21:22:09.481Z,20.34
2023-03-30T21:24:37.416Z,20.36
2023-03-30T21:27:05.458Z,20.33
2023-03-30T21:29:33.502Z,20.35
2023-03-30T21:32:01.508Z,20.35
2023-03-30T21:34:29.486Z,20.37
2023-03-30T21:36:57.520Z,20.38
2023-03-30T21:39:25.499Z,20.39
2023-03-30T21:41:53.392Z,20.37
2023-03-30T21:44:21.518Z,20.35
2023-03-30T21:46:49.383Z,20.37
2023-03-30T21:49:17.299Z,20.37
2023-03-30T21:51:45.241Z,20.36
2023-03-30T21:54:14.112Z,20.33
2023-03-30T21:56:42.180Z,20.36
2023-03-30T21:59:09.961Z,20.38
2023-03-30T22:01:38.823Z,20.36
2023-03-30T22:04:06.771Z,20.37
2023-03-30T22:06:34.999Z,20.36
2023-03-30T22:09:02.850Z,20.36
2023-03-30T22:11:30.692Z,20.36
2023-03-30T22:13:58.769Z,20.37
2023-03-30T22:16:28.355Z,20.37
2023-03-30T22:18:56.400Z,20.37
2023-03-30T22:21:24.845Z,20.37
2023-03-30T22:23:52.672Z,20.36
2023-03-30T22:26:20.960Z,20.35
2023-03-30T22:28:48.738Z,20.35
2023-03-30T22:31:17.043Z,20.36
2023-03-30T22:33:45.063Z,20.36
2023-03-30T22:36:14.962Z,20.37
2023-03-30T22:38:43.043Z,20.38
2023-03-30T22:41:11.585Z,20.37
2023-03-30T22:43:39.386Z,20.35
2023-03-30T22:46:07.365Z,20.34
2023-03-30T22:48:35.691Z,20.33
2023-03-30T22:51:03.653Z,20.33
2023-03-30T22:53:31.650Z,20.33
2023-03-30T22:55:59.517Z,20.35
2023-03-30T22:58:27.472Z,20.33
2023-03-30T23:00:56.587Z,20.36
2023-03-30T23:03:24.455Z,20.36
2023-03-30T23:05:52.667Z,20.39
2023-03-30T23:08:20.490Z,20.37
2023-03-30T23:10:48.348Z,20.32
2023-03-30T23:13:16.144Z,20.33
2023-03-30T23:15:44.036Z,20.37
2023-03-30T23:18:12.249Z,20.38
2023-03-30T23:20:40.008Z,20.37
2023-03-30T23:23:08.448Z,20.36
2023-03-30T23:25:38.019Z,20.31
2023-03-30T23:28:06.010Z,20.31
2023-03-30T23:30:33.814Z,20.31
2023-03-30T23:33:01.883Z,20.31
2023-03-30T23:35:29.783Z,20.31
2023-03-30T23:37:57.548Z,20.30
2023-03-30T23:40:25.495Z,20.30
2023-03-30T23:42:53.334Z,20.28
2023-03-30T23:45:21.322Z,20.30
2023-03-30T23:47:49.216Z,20.30
2023-03-30T23:50:17.233Z,20.27
2023-03-30T23:52:45.087Z,20.27
2023-03-30T23:55:13.203Z,20.30
2023-03-30T23:57:41.148Z,20.29
